createdAt,value
2022-09-15T00:00:56.686Z,1.92
2022-09-15T00:03:23.724Z,1.98
2022-09-15T00:05:50.193Z,2.17
2022-09-15T00:08:16.478Z,2.20
2022-09-15T00:10:53.751Z,1.95
2022-09-15T00:13:20.991Z,2.20
2022-09-15T00:15:47.206Z,1.90
2022-09-15T00:18:13.811Z,1.85
2022-09-15T00:20:43.671Z,1.85
2022-09-15T00:23:11.078Z,2.15
2022-09-15T00:25:48.025Z,2.13
2022-09-15T00:28:14.957Z,1.95
2022-09-15T00:30:42.466Z,2.60
2022-09-15T00:33:08.870Z,1.85
2022-09-15T00:35:42.146Z,2.45
2022-09-15T00:38:09.019Z,2.05
2022-09-15T00:40:43.308Z,2.20
2022-09-15T00:43:10.431Z,2.55
2022-09-15T00:45:37.104Z,2.40
2022-09-15T00:48:04.536Z,2.60
2022-09-15T00:50:32.555Z,2.28
2022-09-15T00:53:01.523Z,2.10
2022-09-15T00:55:30.264Z,2.33
2022-09-15T00:58:03.332Z,2.78
2022-09-15T01:00:29.767Z,2.63
2022-09-15T01:02:56.327Z,2.47
2022-09-15T01:05:24.059Z,2.40
2022-09-15T01:07:50.230Z,2.35
2022-09-15T01:10:36.792Z,2.55
2022-09-15T01:13:05.059Z,2.40
2022-09-15T01:15:49.810Z,2.40
2022-09-15T01:18:45.326Z,2.58
2022-09-15T01:21:33.362Z,2.22
2022-09-15T01:23:59.590Z,2.30
2022-09-15T01:26:42.185Z,2.28
2022-09-15T01:29:27.048Z,2.13
2022-09-15T01:32:30.494Z,2.05
2022-09-15T01:35:07.520Z,2.65
2022-09-15T01:37:37.544Z,2.17
2022-09-15T01:40:04.756Z,2.35
2022-09-15T01:42:32.131Z,2.78
2022-09-15T01:45:00.910Z,1.85
2022-09-15T01:47:28.235Z,2.40
2022-09-15T01:50:03.503Z,2.22
2022-09-15T01:52:30.480Z,2.30
2022-09-15T01:54:58.809Z,2.33
2022-09-15T01:57:25.195Z,2.17
2022-09-15T01:59:52.197Z,2.13
2022-09-15T02:02:25.522Z,2.22
2022-09-15T02:05:01.461Z,2.72
2022-09-15T02:07:35.490Z,2.22
2022-09-15T02:10:05.292Z,1.88
2022-09-15T02:12:54.532Z,2.05
2022-09-15T02:15:24.511Z,2.20
2022-09-15T02:17:54.117Z,2.22
2022-09-15T02:20:25.567Z,2.17
2022-09-15T02:22:54.962Z,2.05
2022-09-15T02:25:30.791Z,2.33
2022-09-15T02:27:59.880Z,1.77
2022-09-15T02:30:26.777Z,2.20
2022-09-15T02:32:57.954Z,2.22
2022-09-15T02:35:25.871Z,1.98
2022-09-15T02:37:52.699Z,2.33
2022-09-15T02:40:19.120Z,1.98
2022-09-15T02:42:52.582Z,1.98
2022-09-15T02:45:20.091Z,1.80
2022-09-15T02:47:46.407Z,1.85
2022-09-15T02:50:12.631Z,2.28
2022-09-15T02:52:39.006Z,1.40
2022-09-15T02:55:05.468Z,2.22
2022-09-15T02:57:31.674Z,2.17
2022-09-15T03:00:13.353Z,1.88
2022-09-15T03:02:40.479Z,1.77
2022-09-15T03:05:07.142Z,1.77
2022-09-15T03:07:33.364Z,1.45
2022-09-15T03:09:59.619Z,1.45
2022-09-15T03:12:26.170Z,2.42
2022-09-15T03:14:52.409Z,1.65
2022-09-15T03:17:18.615Z,2.05
2022-09-15T03:19:44.979Z,1.95
2022-09-15T03:22:11.209Z,1.80
2022-09-15T03:24:38.228Z,1.88
2022-09-15T03:27:04.955Z,1.85
2022-09-15T03:29:31.159Z,1.48
2022-09-15T03:31:57.580Z,1.77
2022-09-15T03:34:23.830Z,1.50
2022-09-15T03:36:50.025Z,1.80
2022-09-15T03:39:16.286Z,1.70
2022-09-15T03:41:42.494Z,1.75
2022-09-15T03:44:08.842Z,1.90
2022-09-15T03:46:35.611Z,2.35
2022-09-15T03:49:01.855Z,1.35
2022-09-15T03:51:28.046Z,1.75
2022-09-15T03:53:55.264Z,1.98
2022-09-15T03:56:31.348Z,1.65
2022-09-15T03:58:57.624Z,1.52
2022-09-15T04:01:24.053Z,1.77
2022-09-15T04:03:51.480Z,1.67
2022-09-15T04:06:18.907Z,1.60
2022-09-15T04:08:45.243Z,1.23
2022-09-15T04:11:11.996Z,1.73
2022-09-15T04:13:39.352Z,1.70
2022-09-15T04:16:07.954Z,1.52
2022-09-15T04:18:34.568Z,1.60
2022-09-15T04:21:01.571Z,1.80
2022-09-15T04:23:27.948Z,1.40
2022-09-15T04:25:55.182Z,1.45
2022-09-15T04:28:21.374Z,1.60
2022-09-15T04:30:47.739Z,1.33
2022-09-15T04:33:13.967Z,1.85
2022-09-15T04:35:40.168Z,1.00
2022-09-15T04:38:06.377Z,1.20
2022-09-15T04:40:33.647Z,1.30
2022-09-15T04:42:59.973Z,1.23
2022-09-15T04:45:27.136Z,1.70
2022-09-15T04:47:53.332Z,1.92
2022-09-15T04:50:19.540Z,1.70
2022-09-15T04:52:45.752Z,1.27
2022-09-15T04:55:11.963Z,1.30
2022-09-15T04:57:38.175Z,1.27
2022-09-15T05:00:06.415Z,1.52
2022-09-15T05:02:33.374Z,1.40
2022-09-15T05:04:59.786Z,1.45
2022-09-15T05:07:26.340Z,1.85
2022-09-15T05:09:53.127Z,1.42
2022-09-15T05:12:19.314Z,1.00
2022-09-15T05:14:45.520Z,1.40
2022-09-15T05:17:11.776Z,1.23
2022-09-15T05:19:37.986Z,1.35
2022-09-15T05:22:04.687Z,1.67
2022-09-15T05:24:30.949Z,1.90
2022-09-15T05:26:57.183Z,1.25
2022-09-15T05:29:23.423Z,1.40
2022-09-15T05:31:49.768Z,1.23
2022-09-15T05:34:16.011Z,1.63
2022-09-15T05:36:42.273Z,1.40
2022-09-15T05:39:08.591Z,1.35
2022-09-15T05:41:34.805Z,1.70
2022-09-15T05:44:01.921Z,1.73
2022-09-15T05:46:29.060Z,1.58
2022-09-15T05:48:56.604Z,1.40
2022-09-15T05:51:22.902Z,1.88
2022-09-15T05:53:49.133Z,1.58
2022-09-15T05:56:17.047Z,1.55
2022-09-15T05:58:44.288Z,1.38
2022-09-15T06:01:15.027Z,1.40
2022-09-15T06:03:41.261Z,1.52
2022-09-15T06:06:07.641Z,1.70
2022-09-15T06:08:35.006Z,1.27
2022-09-15T06:11:02.687Z,1.58
2022-09-15T06:13:28.934Z,1.45
2022-09-15T06:16:00.295Z,1.30
2022-09-15T06:18:26.559Z,1.30
2022-09-15T06:20:52.810Z,1.50
2022-09-15T06:23:19.023Z,1.20
2022-09-15T06:25:45.248Z,1.45
2022-09-15T06:28:11.462Z,1.70
2022-09-15T06:30:40.465Z,1.70
2022-09-15T06:33:06.772Z,1.35
2022-09-15T06:35:32.998Z,1.80
2022-09-15T06:37:59.196Z,1.42
2022-09-15T06:40:25.801Z,1.73
2022-09-15T06:42:54.978Z,1.30
2022-09-15T06:45:21.343Z,1.60
2022-09-15T06:47:54.653Z,1.52
2022-09-15T06:50:33.926Z,1.10
2022-09-15T06:53:00.156Z,2.33
2022-09-15T06:55:26.354Z,1.02
2022-09-15T06:57:52.803Z,1.10
2022-09-15T07:00:20.023Z,2.03
2022-09-15T07:02:49.763Z,1.08
2022-09-15T07:05:16.095Z,1.35
2022-09-15T07:07:42.324Z,1.75
2022-09-15T07:10:08.779Z,1.30
2022-09-15T07:12:34.990Z,1.10
2022-09-15T07:15:01.213Z,1.60
2022-09-15T07:17:28.547Z,1.52
2022-09-15T07:19:54.752Z,1.35
2022-09-15T07:22:21.059Z,1.80
2022-09-15T07:24:47.321Z,1.88
2022-09-15T07:27:13.546Z,1.75
2022-09-15T07:29:39.765Z,1.70
2022-09-15T07:32:06.067Z,1.73
2022-09-15T07:34:32.418Z,1.20
2022-09-15T07:36:58.621Z,1.20
2022-09-15T07:39:24.819Z,1.38
2022-09-15T07:41:51.056Z,1.65
2022-09-15T07:44:17.254Z,2.00
2022-09-15T07:46:43.856Z,2.35
2022-09-15T07:49:10.222Z,1.80
2022-09-15T07:51:36.476Z,1.55
2022-09-15T07:54:02.739Z,1.27
2022-09-15T07:56:29.028Z,1.50
2022-09-15T07:58:55.242Z,1.65
2022-09-15T08:01:22.521Z,1.40
2022-09-15T08:03:50.008Z,2.75
2022-09-15T08:06:17.432Z,1.30
2022-09-15T08:08:43.969Z,0.88
2022-09-15T08:11:16.371Z,1.40
2022-09-15T08:13:45.044Z,1.45
2022-09-15T08:16:12.466Z,1.40
2022-09-15T08:18:39.393Z,1.60
2022-09-15T08:21:10.404Z,1.45
2022-09-15T08:23:36.938Z,1.23
2022-09-15T08:26:05.362Z,1.50
2022-09-15T08:28:31.566Z,0.90
2022-09-15T08:30:59.756Z,1.00
2022-09-15T08:33:26.121Z,1.17
2022-09-15T08:35:52.331Z,0.90
2022-09-15T08:38:18.543Z,1.73
2022-09-15T08:40:45.558Z,1.17
2022-09-15T08:43:16.539Z,1.17
2022-09-15T08:46:00.553Z,1.42
2022-09-15T08:48:30.239Z,1.17
2022-09-15T08:50:58.950Z,1.60
2022-09-15T08:53:27.984Z,1.08
2022-09-15T08:55:55.134Z,1.58
2022-09-15T08:58:25.930Z,1.55
2022-09-15T09:01:12.483Z,1.00
2022-09-15T09:03:38.902Z,1.52
2022-09-15T09:06:05.427Z,1.45
2022-09-15T09:08:31.649Z,1.80
2022-09-15T09:10:57.906Z,1.55
2022-09-15T09:13:46.531Z,1.10
2022-09-15T09:16:13.837Z,1.60
2022-09-15T09:18:47.211Z,1.08
2022-09-15T09:21:18.444Z,1.17
2022-09-15T09:23:55.186Z,1.30
2022-09-15T09:26:21.428Z,1.30
2022-09-15T09:28:52.980Z,1.50
2022-09-15T09:31:21.285Z,1.60
2022-09-15T09:33:56.603Z,1.30
2022-09-15T09:36:22.941Z,2.00
2022-09-15T09:38:49.820Z,1.17
2022-09-15T09:41:35.397Z,1.08
2022-09-15T09:44:03.017Z,1.30
2022-09-15T09:46:29.742Z,1.10
2022-09-15T09:49:04.412Z,1.67
2022-09-15T09:51:38.479Z,1.60
2022-09-15T09:54:06.214Z,0.82
2022-09-15T09:56:33.341Z,1.50
2022-09-15T09:58:59.600Z,1.48
2022-09-15T10:01:25.999Z,1.20
2022-09-15T10:04:12.446Z,1.55
2022-09-15T10:06:39.502Z,1.50
2022-09-15T10:09:18.585Z,1.50
2022-09-15T10:11:49.703Z,1.95
2022-09-15T10:14:24.992Z,1.55
2022-09-15T10:17:01.582Z,1.27
2022-09-15T10:19:29.825Z,1.05
2022-09-15T10:21:56.625Z,1.30
2022-09-15T10:24:41.024Z,1.17
2022-09-15T10:27:18.250Z,1.40
2022-09-15T10:29:44.559Z,1.10
2022-09-15T10:32:29.986Z,1.77
2022-09-15T10:35:07.079Z,1.55
2022-09-15T10:37:39.316Z,1.75
2022-09-15T10:40:22.177Z,1.20
2022-09-15T10:42:52.391Z,2.00
2022-09-15T10:45:18.695Z,1.63
2022-09-15T10:47:57.051Z,1.25
2022-09-15T10:50:30.479Z,1.50
2022-09-15T10:53:16.745Z,1.42
2022-09-15T10:55:52.798Z,1.80
2022-09-15T10:58:39.932Z,1.98
2022-09-15T11:01:17.636Z,1.40
2022-09-15T11:04:02.049Z,1.67
2022-09-15T11:06:36.475Z,1.27
2022-09-15T11:09:20.282Z,1.55
2022-09-15T11:11:52.535Z,1.35
2022-09-15T11:14:37.033Z,1.90
2022-09-15T11:17:21.719Z,1.55
2022-09-15T11:20:06.615Z,1.17
2022-09-15T11:22:47.306Z,1.50
2022-09-15T11:25:36.834Z,1.67
2022-09-15T11:28:23.491Z,1.92
2022-09-15T11:31:00.942Z,1.27
2022-09-15T11:33:31.090Z,1.83
2022-09-15T11:36:17.824Z,2.17
2022-09-15T11:38:47.882Z,1.40
2022-09-15T11:41:17.730Z,1.00
2022-09-15T11:43:46.208Z,1.60
2022-09-15T11:46:20.731Z,1.58
2022-09-15T11:48:55.247Z,1.48
2022-09-15T11:51:23.410Z,1.73
2022-09-15T11:53:54.273Z,1.23
2022-09-15T11:56:21.638Z,2.00
2022-09-15T11:59:06.137Z,1.30
2022-09-15T12:01:37.217Z,1.08
2022-09-15T12:04:18.237Z,0.95
2022-09-15T12:07:08.811Z,1.20
2022-09-15T12:09:38.407Z,1.13
2022-09-15T12:12:11.610Z,1.50
2022-09-15T12:14:44.803Z,1.10
2022-09-15T12:17:16.737Z,1.10
2022-09-15T12:19:48.860Z,1.60
2022-09-15T12:22:28.257Z,0.90
2022-09-15T12:25:02.568Z,0.90
2022-09-15T12:27:30.231Z,1.00
2022-09-15T12:29:57.539Z,1.10
2022-09-15T12:32:25.174Z,1.25
2022-09-15T12:35:13.472Z,1.00
2022-09-15T12:37:52.809Z,1.67
2022-09-15T12:40:33.493Z,1.43
2022-09-15T12:43:01.604Z,1.15
2022-09-15T12:45:33.151Z,1.08
2022-09-15T12:48:02.767Z,1.00
2022-09-15T12:50:30.676Z,1.00
2022-09-15T12:52:58.946Z,1.00
2022-09-15T12:55:27.394Z,1.20
2022-09-15T12:58:00.703Z,1.52
2022-09-15T13:00:29.723Z,1.17
2022-09-15T13:02:56.706Z,0.70
2022-09-15T13:05:40.973Z,0.88
2022-09-15T13:08:25.368Z,0.70
2022-09-15T13:11:20.999Z,1.05
2022-09-15T13:13:55.774Z,0.82
2022-09-15T13:16:25.882Z,1.00
2022-09-15T13:18:57.743Z,1.00
2022-09-15T13:21:24.696Z,0.70
2022-09-15T13:23:52.687Z,1.42
2022-09-15T13:26:22.627Z,1.00
2022-09-15T13:28:51.533Z,1.40
2022-09-15T13:31:29.906Z,1.20
2022-09-15T13:40:22.129Z,1.37
2022-09-15T13:43:07.169Z,1.15
2022-09-15T13:45:56.442Z,1.63
2022-09-15T13:48:42.359Z,2.03
2022-09-15T13:51:15.368Z,1.88
2022-09-15T13:53:48.490Z,1.08
2022-09-15T13:56:32.269Z,1.48
2022-09-15T13:59:08.106Z,1.50
2022-09-15T14:01:40.432Z,1.67
2022-09-15T14:04:27.706Z,1.53
2022-09-15T14:06:58.581Z,1.25
2022-09-15T14:09:31.323Z,1.33
2022-09-15T14:12:01.228Z,1.77
2022-09-15T14:14:27.419Z,1.75
2022-09-15T14:16:54.920Z,1.80
2022-09-15T14:19:27.208Z,1.52
2022-09-15T14:21:58.310Z,1.83
2022-09-15T14:24:31.938Z,1.30
2022-09-15T14:27:00.027Z,1.10
2022-09-15T14:29:26.834Z,1.50
2022-09-15T14:31:53.480Z,0.95
2022-09-15T14:34:26.927Z,2.35
2022-09-15T14:37:16.231Z,1.40
2022-09-15T14:39:48.623Z,0.70
2022-09-15T14:42:21.321Z,0.90
2022-09-15T14:47:34.487Z,0.80
2022-09-15T14:50:07.975Z,0.95
2022-09-15T14:52:37.687Z,1.10
2022-09-15T14:55:07.243Z,1.42
2022-09-15T14:57:36.111Z,1.00
2022-09-15T15:00:06.316Z,1.10
2022-09-15T15:02:45.303Z,0.88
2022-09-15T15:05:17.477Z,1.40
2022-09-15T15:07:44.032Z,1.30
2022-09-15T15:10:21.582Z,0.98
2022-09-15T15:12:50.507Z,1.55
2022-09-15T15:15:17.194Z,1.48
2022-09-15T15:17:49.262Z,1.10
2022-09-15T15:20:25.553Z,1.52
2022-09-15T15:23:10.723Z,1.33
2022-09-15T15:25:37.451Z,1.05
2022-09-15T15:28:04.582Z,1.45
2022-09-15T15:30:30.877Z,1.20
2022-09-15T15:32:57.348Z,0.95
2022-09-15T15:35:23.618Z,2.03
2022-09-15T15:37:59.321Z,1.23
2022-09-15T15:40:25.657Z,0.80
2022-09-15T15:42:59.392Z,1.10
2022-09-15T15:45:28.354Z,1.42
2022-09-15T15:47:54.719Z,1.00
2022-09-15T15:50:22.101Z,1.67
2022-09-15T15:52:48.868Z,1.35
2022-09-15T15:55:19.353Z,1.13
2022-09-15T15:58:04.525Z,1.42
2022-09-15T16:00:43.953Z,1.23
2022-09-15T16:03:10.730Z,0.87
2022-09-15T16:05:37.400Z,0.90
2022-09-15T16:08:05.559Z,1.10
2022-09-15T16:10:37.452Z,0.93
2022-09-15T16:13:03.716Z,0.95
2022-09-15T16:15:29.939Z,1.10
2022-09-15T16:17:56.167Z,1.30
2022-09-15T16:20:24.691Z,1.27
2022-09-15T16:22:51.464Z,1.25
2022-09-15T16:25:21.078Z,1.38
2022-09-15T16:27:47.292Z,1.00
2022-09-15T16:30:13.535Z,1.77
2022-09-15T16:32:40.620Z,1.20
2022-09-15T16:35:16.822Z,1.23
2022-09-15T16:37:43.018Z,1.25
2022-09-15T16:40:09.325Z,0.93
2022-09-15T16:42:35.570Z,1.08
2022-09-15T16:45:02.875Z,0.90
2022-09-15T16:47:29.307Z,0.73
2022-09-15T16:49:55.542Z,0.90
2022-09-15T16:52:21.733Z,0.98
2022-09-15T16:54:48.131Z,0.85
2022-09-15T16:57:14.363Z,0.80
2022-09-15T16:59:40.571Z,1.00
2022-09-15T17:02:12.200Z,1.08
2022-09-15T17:04:38.457Z,0.98
2022-09-15T17:07:04.696Z,0.85
2022-09-15T17:09:30.903Z,0.73
2022-09-15T17:11:57.115Z,0.73
2022-09-15T17:14:23.538Z,0.60
2022-09-15T17:16:52.675Z,0.68
2022-09-15T17:19:18.908Z,0.88
2022-09-15T17:21:45.479Z,0.80
2022-09-15T17:24:11.999Z,0.60
2022-09-15T17:26:38.331Z,1.10
2022-09-15T17:29:04.587Z,0.82
2022-09-15T17:31:32.308Z,1.00
2022-09-15T17:33:58.610Z,1.00
2022-09-15T17:36:24.999Z,1.00
2022-09-15T17:38:51.196Z,1.33
2022-09-15T17:41:18.576Z,0.70
2022-09-15T17:43:45.208Z,1.40
2022-09-15T17:46:12.014Z,1.10
2022-09-15T17:48:38.915Z,1.20
2022-09-15T17:51:09.547Z,0.90
2022-09-15T17:53:35.757Z,1.30
2022-09-15T17:56:02.111Z,1.20
2022-09-15T17:58:31.171Z,0.77
2022-09-15T18:00:57.713Z,1.25
2022-09-15T18:03:27.743Z,1.27
2022-09-15T18:05:58.601Z,1.17
2022-09-15T18:08:25.007Z,0.77
2022-09-15T18:10:51.490Z,1.17
2022-09-15T18:13:24.549Z,0.95
2022-09-15T18:15:50.923Z,0.95
2022-09-15T18:18:21.487Z,1.33
2022-09-15T18:20:49.387Z,1.20
2022-09-15T18:23:17.012Z,1.17
2022-09-15T18:25:43.907Z,0.95
2022-09-15T18:28:10.664Z,1.88
2022-09-15T18:30:41.115Z,1.10
2022-09-15T18:35:34.098Z,1.17
2022-09-15T18:38:00.590Z,0.80
2022-09-15T18:40:27.546Z,1.10
2022-09-15T18:42:54.116Z,1.45
2022-09-15T18:45:20.635Z,0.70
2022-09-15T18:47:48.683Z,0.90
2022-09-15T18:50:15.382Z,0.98
2022-09-15T18:52:41.679Z,0.73
2022-09-15T18:55:09.048Z,0.90
2022-09-15T18:57:35.772Z,1.20
2022-09-15T19:00:04.955Z,0.95
2022-09-15T19:02:31.564Z,1.08
2022-09-15T19:04:57.825Z,0.80
2022-09-15T19:07:28.184Z,0.95
2022-09-15T19:09:56.732Z,1.38
2022-09-15T19:12:23.383Z,1.00
2022-09-15T19:14:49.591Z,0.75
2022-09-15T19:17:15.991Z,0.90
2022-09-15T19:19:42.844Z,0.68
2022-09-15T19:22:09.518Z,1.02
2022-09-15T19:24:36.330Z,0.77
2022-09-15T19:27:06.383Z,1.17
2022-09-15T19:29:34.810Z,0.90
2022-09-15T19:32:04.976Z,0.80
2022-09-15T19:34:31.229Z,0.82
2022-09-15T19:36:57.728Z,1.08
2022-09-15T19:39:23.990Z,1.25
2022-09-15T19:41:50.607Z,1.13
2022-09-15T19:44:17.111Z,0.75
2022-09-15T19:46:43.355Z,0.98
2022-09-15T19:49:10.049Z,1.17
2022-09-15T19:51:36.282Z,1.30
2022-09-15T19:54:02.550Z,0.90
2022-09-15T19:56:28.946Z,0.82
2022-09-15T19:58:56.208Z,1.20
2022-09-15T20:01:23.612Z,0.80
2022-09-15T20:03:50.142Z,0.90
2022-09-15T20:06:16.346Z,1.00
2022-09-15T20:08:45.382Z,1.17
2022-09-15T20:11:11.682Z,1.35
2022-09-15T20:13:41.351Z,0.88
2022-09-15T20:16:08.108Z,0.90
2022-09-15T20:18:38.359Z,1.10
2022-09-15T20:21:08.532Z,1.10
2022-09-15T20:23:34.966Z,1.25
2022-09-15T20:26:02.505Z,0.75
2022-09-15T20:28:29.415Z,1.83
2022-09-15T20:31:02.609Z,1.00
2022-09-15T20:33:29.340Z,0.52
2022-09-15T20:35:59.839Z,1.25
2022-09-15T20:40:55.598Z,2.47
2022-09-15T20:43:22.139Z,1.70
2022-09-15T20:45:55.786Z,1.67
2022-09-15T20:48:22.068Z,1.40
2022-09-15T20:50:48.319Z,1.45
2022-09-15T20:53:14.519Z,1.40
2022-09-15T20:55:40.735Z,1.30
2022-09-15T20:58:07.936Z,1.17
2022-09-15T21:00:34.175Z,1.23
2022-09-15T21:03:00.366Z,1.38
2022-09-15T21:05:26.596Z,1.42
2022-09-15T21:07:53.156Z,1.20
2022-09-15T21:10:19.347Z,1.40
2022-09-15T21:12:45.602Z,1.10
2022-09-15T21:15:11.852Z,1.08
2022-09-15T21:17:38.042Z,1.05
2022-09-15T21:20:04.434Z,1.35
2022-09-15T21:22:30.642Z,1.13
2022-09-15T21:24:56.883Z,1.00
2022-09-15T21:27:26.821Z,1.10
2022-09-15T21:29:53.140Z,1.15
2022-09-15T21:32:19.580Z,1.10
2022-09-15T21:34:47.167Z,1.50
2022-09-15T21:37:13.859Z,1.33
2022-09-15T21:39:40.115Z,1.30
2022-09-15T21:42:06.422Z,1.25
2022-09-15T21:44:32.623Z,1.20
2022-09-15T21:46:58.855Z,1.23
2022-09-15T21:49:25.110Z,1.10
2022-09-15T21:51:51.318Z,1.20
2022-09-15T21:54:17.675Z,1.02
2022-09-15T21:56:44.022Z,0.98
2022-09-15T21:59:10.474Z,1.40
2022-09-15T22:01:36.801Z,1.40
2022-09-15T22:04:07.428Z,1.60
2022-09-15T22:06:40.106Z,1.33
2022-09-15T22:09:07.540Z,1.20
2022-09-15T22:11:34.244Z,1.25
2022-09-15T22:14:01.766Z,1.00
2022-09-15T22:16:28.535Z,1.20
2022-09-15T22:18:55.422Z,0.82
2022-09-15T22:21:21.635Z,1.38
2022-09-15T22:23:48.908Z,1.45
2022-09-15T22:26:19.820Z,1.50
2022-09-15T22:28:46.308Z,1.00
2022-09-15T22:31:13.348Z,1.40
2022-09-15T22:33:41.244Z,1.05
2022-09-15T22:36:15.041Z,1.25
2022-09-15T22:38:41.711Z,1.40
2022-09-15T22:41:09.493Z,1.35
2022-09-15T22:43:36.287Z,1.40
2022-09-15T22:46:03.039Z,1.10
2022-09-15T22:48:29.315Z,1.40
2022-09-15T22:50:55.545Z,1.30
2022-09-15T22:53:23.371Z,1.52
2022-09-15T22:55:53.286Z,1.45
2022-09-15T22:58:19.605Z,0.95
2022-09-15T23:00:45.977Z,1.05
2022-09-15T23:03:12.244Z,1.30
2022-09-15T23:05:38.482Z,1.80
2022-09-15T23:08:04.745Z,1.20
2022-09-15T23:10:31.488Z,1.42
2022-09-15T23:12:58.188Z,1.20
2022-09-15T23:15:24.465Z,1.42
2022-09-15T23:17:51.259Z,1.50
2022-09-15T23:20:17.852Z,1.17
2022-09-15T23:22:44.273Z,1.60
2022-09-15T23:25:10.533Z,1.45
2022-09-15T23:27:36.857Z,0.90
2022-09-15T23:30:03.389Z,1.10
2022-09-15T23:32:29.648Z,1.35
2022-09-15T23:34:56.447Z,1.20
2022-09-15T23:37:22.684Z,1.42
2022-09-15T23:39:48.945Z,1.23
2022-09-15T23:42:18.728Z,1.42
2022-09-15T23:44:45.179Z,0.65
2022-09-15T23:47:11.395Z,1.45
2022-09-15T23:49:37.627Z,1.40
2022-09-15T23:52:03.853Z,1.50
2022-09-15T23:54:30.060Z,1.10
2022-09-15T23:56:56.312Z,1.48
2022-09-15T23:59:22.524Z,1.00
